Time;durP1;ratioP1;P1;durP2;ratioP2;P2;SDS_P1;SDS_P2;PMS_P1;PMS_P2;Temp;Humidity;BMP_temperature;BMP_pressure;BME280_temperature;BME280_humidity;BME280_pressure;Samples;Min_cycle;Max_cycle;Signal;HPM_P1;HPM_P2
2024/02/25 00:01:17;;;;;;;10.35;5.85;;;1.60;99.90;;;;;;4987730;28;20029;-88
2024/02/25 00:03:43;;;;;;;9.30;5.90;;;1.60;99.90;;;;;;5010776;28;20055;-86
2024/02/25 00:06:09;;;;;;;8.75;5.60;;;1.60;99.90;;;;;;4954450;28;20032;-88
2024/02/25 00:08:35;;;;;;;10.45;5.63;;;1.60;99.90;;;;;;4954834;28;20035;-87
2024/02/25 00:11:01;;;;;;;9.15;5.63;;;1.60;99.90;;;;;;4984863;28;20028;-87
2024/02/25 00:13:27;;;;;;;9.40;4.90;;;1.60;99.90;;;;;;4994787;28;20094;-87
2024/02/25 00:15:53;;;;;;;8.82;5.07;;;1.60;99.90;;;;;;5006525;28;20035;-88
2024/02/25 00:18:19;;;;;;;8.75;6.07;;;1.60;99.90;;;;;;4972534;28;20033;-88
2024/02/25 00:20:44;;;;;;;8.10;5.25;;;1.60;99.90;;;;;;4971175;28;20035;-88
2024/02/25 00:23:10;;;;;;;10.43;5.68;;;1.50;99.90;;;;;;4988103;28;20025;-87
2024/02/25 00:25:36;;;;;;;20.25;6.07;;;1.40;99.90;;;;;;5021030;28;20031;-88
2024/02/25 00:28:02;;;;;;;9.63;5.00;;;1.50;99.90;;;;;;4953594;28;20027;-88
2024/02/25 00:30:28;;;;;;;16.02;5.05;;;1.50;99.90;;;;;;4953065;28;20294;-87
2024/02/25 00:32:54;;;;;;;7.05;3.47;;;1.60;99.90;;;;;;4952957;28;20038;-88
2024/02/25 00:35:19;;;;;;;7.82;3.80;;;1.60;99.90;;;;;;4953862;28;20038;-87
2024/02/25 00:37:48;;;;;;;7.78;3.88;;;1.40;99.90;;;;;;4953844;28;20058;-88
2024/02/25 00:40:16;;;;;;;6.25;3.45;;;1.40;99.90;;;;;;4967933;28;20113;-89
2024/02/25 00:42:42;;;;;;;8.75;5.22;;;1.20;99.90;;;;;;4968819;28;20026;-88
2024/02/25 00:45:08;;;;;;;6.32;3.95;;;1.20;99.90;;;;;;4973141;28;20027;-89
2024/02/25 00:47:33;;;;;;;6.45;3.38;;;1.20;99.90;;;;;;4972011;28;20054;-88
2024/02/25 00:50:00;;;;;;;7.72;4.10;;;1.30;99.90;;;;;;4975943;28;20080;-89
2024/02/25 00:52:27;;;;;;;6.60;4.00;;;1.30;99.90;;;;;;4979931;28;20105;-88
2024/02/25 00:54:53;;;;;;;7.03;3.30;;;1.30;99.90;;;;;;4979140;28;20023;-88
2024/02/25 00:57:18;;;;;;;4.82;3.95;;;1.30;99.90;;;;;;4995753;28;20033;-87
2024/02/25 00:59:44;;;;;;;5.15;3.25;;;1.30;99.90;;;;;;5014213;28;20031;-88
2024/02/25 01:02:10;;;;;;;4.40;3.85;;;1.30;99.90;;;;;;4982745;28;20034;-90
2024/02/25 01:04:35;;;;;;;8.93;3.45;;;1.30;99.90;;;;;;5014286;28;20094;-87
2024/02/25 01:07:01;;;;;;;4.38;3.53;;;1.20;99.90;;;;;;4974766;28;20022;-89
2024/02/25 01:09:26;;;;;;;6.78;4.13;;;1.20;99.90;;;;;;4973993;28;20031;-87
2024/02/25 01:11:52;;;;;;;6.10;3.80;;;1.20;99.90;;;;;;4972813;28;20031;-89
2024/02/25 01:14:20;;;;;;;5.97;4.28;;;1.20;99.90;;;;;;4970050;28;20030;-88
2024/02/25 01:16:47;;;;;;;5.30;4.13;;;1.20;99.90;;;;;;5009676;28;20096;-88
2024/02/25 01:19:13;;;;;;;11.40;4.07;;;1.10;99.90;;;;;;4997245;28;20038;-88
2024/02/25 01:21:39;;;;;;;7.57;3.88;;;1.00;99.90;;;;;;4954428;28;20079;-88
2024/02/25 01:24:04;;;;;;;7.07;4.40;;;1.10;99.90;;;;;;4972882;28;20027;-90
2024/02/25 01:26:31;;;;;;;4.80;3.20;;;1.10;99.90;;;;;;5006413;28;20023;-88
2024/02/25 01:28:58;;;;;;;8.18;4.82;;;1.10;99.90;;;;;;5009190;28;20027;-88
2024/02/25 01:31:23;;;;;;;7.78;4.95;;;1.00;99.90;;;;;;5009263;28;20019;-88
2024/02/25 01:33:49;;;;;;;8.02;6.75;;;1.10;99.90;;;;;;4955738;28;20382;-86
2024/02/25 01:36:15;;;;;;;8.48;4.32;;;1.10;99.90;;;;;;4997535;28;20033;-88
2024/02/25 01:38:41;;;;;;;5.28;4.55;;;1.20;99.90;;;;;;4982878;28;20142;-89
2024/02/25 01:41:07;;;;;;;5.53;4.80;;;1.10;99.90;;;;;;4974257;28;20019;-88
2024/02/25 01:43:39;;;;;;;6.55;3.70;;;1.00;99.90;;;;;;4973932;28;20080;-89
2024/02/25 01:46:05;;;;;;;7.80;5.13;;;0.90;99.90;;;;;;4972635;28;20027;-89
2024/02/25 01:48:32;;;;;;;8.10;4.10;;;0.90;99.90;;;;;;4966824;28;20499;-88
2024/02/25 01:50:58;;;;;;;6.28;3.72;;;0.90;99.90;;;;;;4966456;28;20027;-87
2024/02/25 01:53:25;;;;;;;6.75;4.78;;;0.90;99.90;;;;;;4971648;28;20452;-89
2024/02/25 01:55:51;;;;;;;5.25;3.72;;;0.90;99.90;;;;;;4980593;28;20030;-85
2024/02/25 01:58:18;;;;;;;6.80;4.28;;;0.90;99.90;;;;;;5006185;28;20113;-87
2024/02/25 02:00:44;;;;;;;4.50;3.53;;;0.80;99.90;;;;;;4971238;28;20054;-88
2024/02/25 02:03:10;;;;;;;12.40;3.88;;;0.80;99.90;;;;;;4997611;28;20554;-88
2024/02/25 02:05:36;;;;;;;6.47;4.63;;;0.80;99.90;;;;;;4953034;28;20076;-89
2024/02/25 02:08:03;;;;;;;5.63;4.10;;;0.80;99.90;;;;;;4951380;28;20055;-88
2024/02/25 02:10:29;;;;;;;7.70;4.45;;;0.80;99.90;;;;;;4952410;28;20050;-87
2024/02/25 02:12:55;;;;;;;6.18;4.78;;;0.80;99.90;;;;;;4954367;28;20508;-87
2024/02/25 02:15:20;;;;;;;5.82;4.60;;;0.80;99.90;;;;;;4966794;28;20030;-88
2024/02/25 02:17:46;;;;;;;6.57;4.82;;;0.90;99.90;;;;;;4971044;28;20511;-88
2024/02/25 02:20:15;;;;;;;7.13;4.55;;;0.90;99.90;;;;;;5010504;28;20115;-87
2024/02/25 02:22:41;;;;;;;7.93;6.18;;;0.90;99.90;;;;;;4952556;28;20457;-88
2024/02/25 02:25:08;;;;;;;6.53;5.35;;;0.90;99.90;;;;;;4960314;28;20023;-87
2024/02/25 02:27:38;;;;;;;5.90;4.93;;;0.90;99.90;;;;;;4972266;28;20409;-86
2024/02/25 02:30:05;;;;;;;5.85;4.03;;;0.90;99.90;;;;;;4985649;28;20539;-87
2024/02/25 02:32:30;;;;;;;8.65;4.95;;;0.80;99.90;;;;;;5026748;28;20027;-88
2024/02/25 02:34:56;;;;;;;9.25;4.63;;;0.80;99.90;;;;;;4983806;28;20035;-88
2024/02/25 02:37:21;;;;;;;10.73;5.30;;;0.90;99.90;;;;;;4993800;28;20429;-89
2024/02/25 02:39:47;;;;;;;6.50;5.10;;;0.90;99.90;;;;;;4975886;28;20026;-87
2024/02/25 02:42:13;;;;;;;8.23;5.03;;;0.90;99.90;;;;;;4984768;28;20141;-87
2024/02/25 02:44:39;;;;;;;7.32;4.30;;;1.00;99.90;;;;;;4966343;28;20670;-87
2024/02/25 02:47:05;;;;;;;8.43;4.65;;;1.10;99.90;;;;;;4983150;28;20016;-87
2024/02/25 02:49:31;;;;;;;8.05;4.25;;;1.00;99.90;;;;;;4994504;28;20043;-88
2024/02/25 02:51:58;;;;;;;5.35;4.25;;;1.00;99.90;;;;;;4972396;28;20072;-87
2024/02/25 02:54:25;;;;;;;5.78;3.42;;;0.90;99.90;;;;;;4972199;28;20033;-87
2024/02/25 02:56:50;;;;;;;9.38;3.88;;;0.90;99.90;;;;;;4986932;28;20027;-87
2024/02/25 02:59:16;;;;;;;5.38;4.88;;;0.90;99.90;;;;;;5006484;28;20034;-88
2024/02/25 03:01:41;;;;;;;4.47;3.65;;;0.90;99.90;;;;;;4972489;28;20048;-90
2024/02/25 03:04:08;;;;;;;5.78;4.05;;;0.80;99.90;;;;;;4992433;28;20051;-88
2024/02/25 03:06:33;;;;;;;7.65;5.05;;;0.80;99.90;;;;;;4953063;28;20019;-88
2024/02/25 03:08:59;;;;;;;9.60;5.97;;;0.70;99.90;;;;;;4953026;28;20516;-88
2024/02/25 03:11:24;;;;;;;6.63;3.72;;;0.80;99.90;;;;;;4952889;28;20038;-88
2024/02/25 03:13:50;;;;;;;7.45;4.13;;;0.80;99.90;;;;;;4963821;28;20493;-88
2024/02/25 03:16:16;;;;;;;7.47;5.22;;;0.80;99.90;;;;;;4972010;28;20106;-87
2024/02/25 03:18:42;;;;;;;6.82;5.53;;;0.80;99.90;;;;;;4971751;28;20386;-87
2024/02/25 03:21:08;;;;;;;5.20;4.70;;;0.90;99.90;;;;;;5010524;28;20024;-87
2024/02/25 03:23:33;;;;;;;8.10;4.63;;;0.90;99.90;;;;;;4952066;28;20114;-88
2024/02/25 03:25:59;;;;;;;6.30;4.35;;;0.90;99.90;;;;;;4952320;28;20034;-88
2024/02/25 03:28:25;;;;;;;11.43;6.75;;;0.80;99.90;;;;;;4952268;28;20058;-87
2024/02/25 03:30:51;;;;;;;8.30;6.25;;;0.80;99.90;;;;;;4967925;28;20474;-89
2024/02/25 03:33:16;;;;;;;9.90;6.95;;;0.90;99.90;;;;;;4991195;28;20021;-87
2024/02/25 03:35:42;;;;;;;10.45;6.28;;;1.00;99.90;;;;;;4969126;28;20053;-87
2024/02/25 03:38:07;;;;;;;10.52;6.70;;;1.10;99.90;;;;;;4974723;28;20031;-88
2024/02/25 03:40:33;;;;;;;9.48;7.15;;;1.10;99.90;;;;;;4976189;28;20023;-89
2024/02/25 03:43:00;;;;;;;9.90;5.57;;;1.20;99.90;;;;;;4981846;28;20081;-88
2024/02/25 03:45:25;;;;;;;8.32;6.30;;;1.30;99.90;;;;;;4966614;28;20023;-88
2024/02/25 03:47:51;;;;;;;8.63;6.13;;;1.20;99.90;;;;;;4976733;28;20029;-86
2024/02/25 03:50:17;;;;;;;7.95;4.95;;;1.20;99.90;;;;;;4992798;28;20027;-89
2024/02/25 03:52:42;;;;;;;9.95;5.53;;;1.20;99.90;;;;;;4951741;28;20028;-88
2024/02/25 03:55:08;;;;;;;9.45;6.47;;;1.20;99.90;;;;;;4971810;28;20023;-88
2024/02/25 03:57:34;;;;;;;9.68;5.10;;;1.30;99.90;;;;;;4971991;28;20050;-88
2024/02/25 03:59:59;;;;;;;8.82;5.20;;;1.20;99.90;;;;;;4971535;28;20052;-89
2024/02/25 04:02:25;;;;;;;9.65;6.32;;;1.10;99.90;;;;;;5018827;28;20103;-87
2024/02/25 04:04:51;;;;;;;8.00;6.30;;;1.20;99.90;;;;;;4962798;28;20110;-87
2024/02/25 04:07:17;;;;;;;8.68;5.20;;;1.20;99.90;;;;;;4951532;28;20023;-86
2024/02/25 04:09:43;;;;;;;10.45;6.35;;;1.20;99.90;;;;;;4958711;28;20069;-88
2024/02/25 04:12:09;;;;;;;9.50;6.22;;;1.20;99.90;;;;;;4971120;28;20038;-88
2024/02/25 04:14:35;;;;;;;7.88;5.65;;;1.30;99.90;;;;;;4970552;28;20512;-88
2024/02/25 04:17:01;;;;;;;8.38;5.35;;;1.30;99.90;;;;;;5002542;28;20047;-90
2024/02/25 04:19:26;;;;;;;6.13;4.78;;;1.30;99.90;;;;;;4951022;28;20102;-88
2024/02/25 04:21:52;;;;;;;8.07;5.15;;;1.30;99.90;;;;;;4950747;28;20050;-86
2024/02/25 04:24:18;;;;;;;7.53;4.93;;;1.30;99.90;;;;;;4954695;28;20081;-89
2024/02/25 04:26:45;;;;;;;7.30;5.22;;;1.30;99.90;;;;;;4967912;28;20045;-88
2024/02/25 04:29:10;;;;;;;5.68;4.88;;;1.30;99.90;;;;;;5007802;28;20041;-88
2024/02/25 04:31:45;;;;;;;9.30;4.65;;;1.20;99.90;;;;;;4973892;28;20042;-89
2024/02/25 04:34:11;;;;;;;6.18;4.72;;;1.20;99.90;;;;;;4965826;28;20465;-89
2024/02/25 04:36:37;;;;;;;8.80;5.22;;;1.20;99.90;;;;;;4967922;28;20108;-87
2024/02/25 04:39:03;;;;;;;8.50;4.63;;;1.20;99.90;;;;;;4983104;28;20123;-87
2024/02/25 04:41:29;;;;;;;6.60;4.55;;;1.30;99.90;;;;;;4999668;28;20027;-87
2024/02/25 04:43:55;;;;;;;8.82;4.68;;;1.30;99.90;;;;;;5017641;28;20019;-88
2024/02/25 04:46:20;;;;;;;4.43;3.42;;;1.40;99.90;;;;;;5009123;28;20049;-87
2024/02/25 04:48:48;;;;;;;8.60;5.03;;;1.20;99.90;;;;;;5006934;28;20027;-88
2024/02/25 04:51:14;;;;;;;5.88;4.22;;;1.10;99.90;;;;;;4959570;28;20030;-87
2024/02/25 04:53:40;;;;;;;5.50;4.28;;;1.10;99.90;;;;;;4973852;28;20057;-88
2024/02/25 04:56:06;;;;;;;6.15;3.95;;;1.10;99.90;;;;;;4972258;28;20543;-89
2024/02/25 04:58:32;;;;;;;8.07;4.88;;;1.00;99.90;;;;;;5015507;28;20028;-89
2024/02/25 05:00:58;;;;;;;9.43;5.15;;;0.90;99.90;;;;;;4964695;28;20027;-88
2024/02/25 05:03:23;;;;;;;7.82;4.10;;;1.00;99.90;;;;;;4974370;28;20054;-87
2024/02/25 05:05:50;;;;;;;11.00;4.43;;;1.10;99.90;;;;;;4974175;28;20023;-87
2024/02/25 05:08:15;;;;;;;8.35;5.05;;;1.20;99.90;;;;;;4973184;28;20034;-88
2024/02/25 05:10:41;;;;;;;8.60;5.53;;;1.30;99.90;;;;;;4973806;28;20027;-85
2024/02/25 05:13:07;;;;;;;8.02;5.40;;;1.40;99.90;;;;;;5012102;28;20055;-87
2024/02/25 05:15:33;;;;;;;10.10;6.13;;;1.40;99.90;;;;;;4972185;28;20039;-86
2024/02/25 05:17:59;;;;;;;8.95;5.13;;;1.40;99.90;;;;;;5007472;28;20033;-88
2024/02/25 05:20:28;;;;;;;8.73;5.18;;;1.50;99.90;;;;;;4974051;28;20020;-88
2024/02/25 05:22:54;;;;;;;10.70;5.63;;;1.60;99.90;;;;;;4972227;28;20086;-88
2024/02/25 05:25:20;;;;;;;9.57;5.88;;;1.60;99.90;;;;;;5010667;28;20055;-88
2024/02/25 05:27:46;;;;;;;7.70;5.18;;;1.70;99.90;;;;;;4973442;28;20564;-88
2024/02/25 05:30:13;;;;;;;7.78;4.93;;;1.80;99.90;;;;;;4974121;28;20484;-89
2024/02/25 05:32:38;;;;;;;8.80;6.07;;;1.80;99.90;;;;;;4973847;28;20030;-88
2024/02/25 05:35:06;;;;;;;8.98;4.47;;;1.90;99.90;;;;;;4956078;28;20505;-88
2024/02/25 05:37:32;;;;;;;9.52;6.25;;;1.90;99.90;;;;;;5004229;28;20504;-90
2024/02/25 05:39:57;;;;;;;7.35;5.47;;;2.00;99.90;;;;;;4962607;28;20031;-88
2024/02/25 05:42:23;;;;;;;8.52;5.22;;;2.10;99.90;;;;;;5035815;28;20025;-88
2024/02/25 05:44:51;;;;;;;7.28;5.82;;;2.10;99.90;;;;;;4968328;28;20497;-88
2024/02/25 05:47:16;;;;;;;5.97;4.70;;;2.10;99.90;;;;;;4973500;28;20019;-87
2024/02/25 05:49:42;;;;;;;7.55;5.03;;;2.20;99.90;;;;;;5008340;28;20040;-87
2024/02/25 05:52:08;;;;;;;7.80;5.78;;;2.20;99.90;;;;;;5014273;28;20049;-88
2024/02/25 05:54:33;;;;;;;7.75;5.47;;;2.20;99.90;;;;;;5009476;28;20028;-87
2024/02/25 05:56:59;;;;;;;8.18;7.05;;;2.30;99.90;;;;;;4972018;28;20038;-88
2024/02/25 05:59:25;;;;;;;12.07;7.35;;;2.20;99.90;;;;;;5018762;28;20060;-88
2024/02/25 06:01:51;;;;;;;8.45;6.38;;;2.30;99.90;;;;;;5009576;28;20021;-86
2024/02/25 06:04:19;;;;;;;7.90;5.13;;;2.30;99.90;;;;;;5012600;28;20061;-86
2024/02/25 06:06:54;;;;;;;8.07;4.88;;;2.30;99.90;;;;;;4964038;28;20023;-87
2024/02/25 06:09:20;;;;;;;8.05;5.65;;;2.30;99.90;;;;;;4975337;28;20030;-89
2024/02/25 06:11:48;;;;;;;9.05;5.13;;;2.30;99.90;;;;;;5009102;28;20025;-88
2024/02/25 06:14:16;;;;;;;9.43;5.97;;;2.40;99.90;;;;;;4975575;28;20197;-88
2024/02/25 06:16:43;;;;;;;9.15;5.13;;;2.40;99.90;;;;;;4974308;28;20168;-87
2024/02/25 06:19:09;;;;;;;5.72;5.15;;;2.40;99.90;;;;;;5007041;28;20030;-88
2024/02/25 06:21:35;;;;;;;9.07;4.70;;;2.50;99.90;;;;;;4974669;28;20057;-87
2024/02/25 06:24:01;;;;;;;6.57;4.28;;;2.50;99.90;;;;;;4974858;28;20066;-88
2024/02/25 06:26:27;;;;;;;6.22;4.22;;;2.50;99.90;;;;;;4973144;28;20053;-88
2024/02/25 06:28:57;;;;;;;7.82;5.15;;;2.50;99.90;;;;;;4979876;28;20534;-89
2024/02/25 06:31:22;;;;;;;7.85;4.70;;;2.60;99.90;;;;;;4960836;28;20022;-87
2024/02/25 06:33:48;;;;;;;7.38;4.60;;;2.60;99.90;;;;;;5006728;28;20071;-87
2024/02/25 06:36:21;;;;;;;5.43;4.45;;;2.60;99.90;;;;;;4984325;28;20039;-89
2024/02/25 06:38:47;;;;;;;8.93;4.70;;;2.60;99.90;;;;;;5015802;28;20035;-88
2024/02/25 06:41:20;;;;;;;7.30;4.70;;;2.60;99.90;;;;;;4956740;28;20485;-89
2024/02/25 06:43:46;;;;;;;7.22;5.15;;;2.50;99.90;;;;;;4976234;28;20503;-87
2024/02/25 06:46:11;;;;;;;7.97;6.38;;;2.50;99.90;;;;;;5033179;28;20017;-88
2024/02/25 06:48:37;;;;;;;11.88;5.20;;;2.50;99.90;;;;;;5026190;28;20025;-87
2024/02/25 06:51:03;;;;;;;6.10;4.47;;;2.50;99.90;;;;;;4981366;28;20728;-89
2024/02/25 06:53:30;;;;;;;7.55;5.40;;;2.50;99.90;;;;;;5016596;28;20031;-86
2024/02/25 06:55:56;;;;;;;7.72;4.95;;;2.50;99.90;;;;;;5043313;28;20032;-87
2024/02/25 06:58:22;;;;;;;6.18;4.88;;;2.50;99.90;;;;;;5037745;28;20024;-88
2024/02/25 07:00:48;;;;;;;8.35;4.90;;;2.50;99.90;;;;;;4983063;28;20453;-87
2024/02/25 07:03:13;;;;;;;7.50;5.38;;;2.60;99.90;;;;;;4985588;28;20028;-86
2024/02/25 07:05:42;;;;;;;5.63;4.53;;;2.70;99.90;;;;;;4978819;28;20474;-87
2024/02/25 07:08:07;;;;;;;6.82;5.32;;;2.70;99.90;;;;;;4972891;28;20023;-87
2024/02/25 07:10:33;;;;;;;6.30;4.18;;;2.80;99.90;;;;;;4975125;28;20046;-86
2024/02/25 07:12:59;;;;;;;5.75;4.40;;;2.80;99.90;;;;;;4989475;28;20034;-88
2024/02/25 07:15:24;;;;;;;4.97;3.63;;;2.90;99.90;;;;;;4975553;28;20026;-87
2024/02/25 07:17:52;;;;;;;4.88;3.40;;;2.90;99.90;;;;;;4981827;28;20050;-88
2024/02/25 07:20:19;;;;;;;6.68;3.70;;;2.90;99.90;;;;;;5021831;28;20095;-87
2024/02/25 07:22:44;;;;;;;7.88;4.25;;;2.90;99.90;;;;;;5023500;28;20615;-89
2024/02/25 07:25:10;;;;;;;4.72;2.88;;;2.90;99.90;;;;;;5023505;28;20048;-87
2024/02/25 07:27:36;;;;;;;5.80;3.65;;;2.90;99.90;;;;;;5000869;28;20036;-88
2024/02/25 07:30:02;;;;;;;6.55;4.18;;;3.00;99.90;;;;;;5012559;28;20090;-87
2024/02/25 07:32:28;;;;;;;5.75;4.40;;;3.00;99.90;;;;;;5017118;28;20027;-88
2024/02/25 07:34:54;;;;;;;5.55;4.10;;;2.90;99.90;;;;;;5008904;28;20158;-88
2024/02/25 07:37:20;;;;;;;9.02;4.63;;;3.00;99.90;;;;;;4983794;28;20160;-87
2024/02/25 07:39:46;;;;;;;5.55;4.38;;;3.00;99.90;;;;;;4973885;28;20033;-86
2024/02/25 07:42:12;;;;;;;5.88;4.00;;;3.00;99.90;;;;;;4995480;28;20040;-86
2024/02/25 07:44:37;;;;;;;6.57;4.70;;;3.00;99.90;;;;;;5035330;28;20025;-88
2024/02/25 07:47:03;;;;;;;7.45;4.82;;;3.00;99.90;;;;;;4972591;28;20023;-87
2024/02/25 07:49:29;;;;;;;6.07;4.50;;;3.10;99.90;;;;;;5018669;28;20034;-86
2024/02/25 07:51:55;;;;;;;5.63;4.63;;;3.10;99.90;;;;;;5007906;28;20025;-88
2024/02/25 07:54:21;;;;;;;5.68;4.45;;;3.20;99.90;;;;;;5009939;28;20073;-88
2024/02/25 07:56:47;;;;;;;5.57;3.63;;;3.30;99.90;;;;;;4953320;28;20429;-85
2024/02/25 07:59:13;;;;;;;3.88;2.63;;;3.40;99.90;;;;;;4972100;28;20031;-89
2024/02/25 08:01:38;;;;;;;3.20;2.00;;;3.80;99.90;;;;;;5005384;28;20027;-87
2024/02/25 08:04:04;;;;;;;2.92;1.85;;;4.20;99.90;;;;;;4982082;28;20412;-89
2024/02/25 08:06:31;;;;;;;4.55;2.55;;;4.60;99.90;;;;;;4972883;28;20046;-87
2024/02/25 08:08:57;;;;;;;3.30;3.17;;;4.90;98.10;;;;;;5016071;28;20442;-87
2024/02/25 08:11:23;;;;;;;3.65;1.55;;;5.20;96.20;;;;;;4973684;28;20035;-88
2024/02/25 08:13:49;;;;;;;3.45;2.38;;;5.40;94.80;;;;;;5013698;28;20369;-88
2024/02/25 08:16:14;;;;;;;1.42;1.33;;;5.60;92.10;;;;;;4996253;28;20030;-89
2024/02/25 08:18:44;;;;;;;1.73;1.60;;;5.80;92.80;;;;;;4973989;28;20041;-88
2024/02/25 08:21:13;;;;;;;2.03;0.90;;;5.90;92.70;;;;;;4973036;28;20697;-87
2024/02/25 08:23:40;;;;;;;1.35;1.15;;;6.00;90.90;;;;;;4969624;28;20041;-88
2024/02/25 08:26:07;;;;;;;1.33;1.00;;;6.10;91.10;;;;;;4991313;28;20021;-90
2024/02/25 08:28:34;;;;;;;2.15;1.40;;;6.20;90.70;;;;;;4988741;28;20046;-89
2024/02/25 08:30:59;;;;;;;2.75;1.15;;;6.30;89.10;;;;;;4986000;28;20061;-87
2024/02/25 08:33:27;;;;;;;1.33;1.23;;;6.30;89.80;;;;;;4988344;28;20028;-89
2024/02/25 08:35:52;;;;;;;1.70;1.33;;;6.40;88.90;;;;;;4971533;28;20029;-88
2024/02/25 08:38:18;;;;;;;1.77;1.13;;;6.40;88.80;;;;;;4973753;28;20110;-89
2024/02/25 08:40:44;;;;;;;1.35;1.25;;;6.50;89.50;;;;;;5014435;28;20183;-88
2024/02/25 08:43:09;;;;;;;3.17;1.33;;;6.60;88.40;;;;;;4973796;28;20030;-87
2024/02/25 08:45:36;;;;;;;1.38;1.20;;;6.70;88.40;;;;;;5015743;28;20027;-88
2024/02/25 08:48:01;;;;;;;1.33;1.23;;;6.70;86.10;;;;;;4972946;28;20031;-89
2024/02/25 08:50:27;;;;;;;1.67;1.58;;;6.80;86.70;;;;;;5008800;28;20077;-87
2024/02/25 08:52:53;;;;;;;1.42;1.20;;;6.90;85.20;;;;;;4962993;28;20045;-87
2024/02/25 08:55:19;;;;;;;1.52;1.42;;;7.00;85.00;;;;;;5032938;28;20032;-89
2024/02/25 08:57:45;;;;;;;1.25;0.95;;;7.10;84.30;;;;;;4970886;28;20023;-88
2024/02/25 09:00:11;;;;;;;0.90;0.90;;;7.10;84.30;;;;;;4956580;28;20058;-88
2024/02/25 09:02:37;;;;;;;1.23;0.98;;;7.20;83.60;;;;;;5004005;28;20023;-88
2024/02/25 09:05:03;;;;;;;1.45;1.00;;;7.30;83.90;;;;;;4979396;28;20028;-88
2024/02/25 09:07:31;;;;;;;1.77;1.10;;;7.30;82.60;;;;;;4991884;28;20602;-89
2024/02/25 09:09:57;;;;;;;1.27;1.17;;;7.40;82.90;;;;;;5006635;28;20027;-89
2024/02/25 09:12:22;;;;;;;2.55;1.08;;;7.40;83.00;;;;;;4969810;28;20031;-89
2024/02/25 09:14:48;;;;;;;2.15;0.82;;;7.60;82.20;;;;;;5017177;28;20028;-88
2024/02/25 09:17:14;;;;;;;1.80;1.40;;;7.60;81.30;;;;;;4971418;28;20046;-88
2024/02/25 09:19:40;;;;;;;1.92;1.23;;;7.70;80.80;;;;;;4969584;28;20035;-89
2024/02/25 09:22:05;;;;;;;2.50;0.90;;;7.80;80.30;;;;;;5007405;28;20413;-88
2024/02/25 09:24:31;;;;;;;1.58;0.70;;;7.90;78.50;;;;;;4957034;28;20123;-90
2024/02/25 09:26:56;;;;;;;1.85;0.90;;;8.00;76.70;;;;;;4957528;28;20038;-90
2024/02/25 09:29:22;;;;;;;1.70;0.88;;;8.00;76.50;;;;;;5012795;28;20027;-88
2024/02/25 09:31:48;;;;;;;1.20;0.65;;;8.10;77.60;;;;;;5015025;28;20025;-89
2024/02/25 09:34:14;;;;;;;1.33;0.93;;;8.30;77.20;;;;;;4957421;28;20122;-88
2024/02/25 09:36:44;;;;;;;1.25;1.15;;;8.30;73.70;;;;;;4957374;28;20027;-88
2024/02/25 09:39:09;;;;;;;1.23;0.85;;;8.30;74.50;;;;;;4955906;28;20035;-89
2024/02/25 09:41:37;;;;;;;1.40;0.85;;;8.40;74.20;;;;;;4957077;28;20474;-91
2024/02/25 09:44:03;;;;;;;1.75;0.80;;;8.50;72.20;;;;;;4956495;28;20030;-89
2024/02/25 09:46:33;;;;;;;1.65;1.23;;;8.60;72.40;;;;;;4970130;28;20108;-86
2024/02/25 09:49:00;;;;;;;1.13;0.90;;;8.60;73.00;;;;;;5008103;28;20027;-89
2024/02/25 09:51:25;;;;;;;2.78;1.35;;;8.60;71.40;;;;;;4956710;28;20123;-90
2024/02/25 09:53:53;;;;;;;2.65;1.42;;;8.50;72.60;;;;;;4956437;28;20027;-89
2024/02/25 09:56:22;;;;;;;0.93;0.93;;;8.40;74.60;;;;;;4961782;28;20026;-90
2024/02/25 09:58:48;;;;;;;1.58;0.68;;;8.40;73.40;;;;;;5018730;28;20035;-88
2024/02/25 10:01:14;;;;;;;2.00;1.45;;;8.60;72.40;;;;;;4987417;28;20084;-89
2024/02/25 10:03:41;;;;;;;1.15;0.95;;;8.90;73.80;;;;;;5013583;28;20099;-88
2024/02/25 10:06:07;;;;;;;0.80;0.60;;;9.10;71.80;;;;;;5039435;28;20037;-90
2024/02/25 10:08:51;;;;;;;0.85;0.65;;;9.10;68.60;;;;;;5007487;28;20061;-89
2024/02/25 10:11:17;;;;;;;1.38;0.90;;;9.30;70.30;;;;;;4984701;28;20118;-90
2024/02/25 10:13:46;;;;;;;1.83;0.93;;;9.50;68.30;;;;;;5024920;28;20023;-91
2024/02/25 10:16:16;;;;;;;0.98;0.88;;;9.70;65.00;;;;;;4976852;28;20018;-89
2024/02/25 10:18:43;;;;;;;2.28;1.23;;;9.80;67.10;;;;;;5018514;28;20032;-89
2024/02/25 10:21:09;;;;;;;2.25;0.90;;;9.70;64.30;;;;;;5014116;28;20026;-90
2024/02/25 10:23:35;;;;;;;1.25;0.95;;;9.80;64.60;;;;;;5023260;28;20048;-92
2024/02/25 10:26:19;;;;;;;2.30;1.13;;;10.00;65.00;;;;;;4966803;28;20051;-89
2024/02/25 10:28:45;;;;;;;0.73;0.70;;;10.10;62.80;;;;;;4956292;28;20035;-88
2024/02/25 10:31:15;;;;;;;1.20;0.90;;;10.20;62.90;;;;;;4956089;28;20019;-89
2024/02/25 10:33:41;;;;;;;1.08;0.98;;;10.10;61.40;;;;;;4963356;28;20052;-88
2024/02/25 10:36:12;;;;;;;1.08;1.05;;;10.20;62.40;;;;;;4974033;28;20140;-90
2024/02/25 10:38:44;;;;;;;1.02;0.70;;;10.50;60.70;;;;;;4974226;28;20060;-90
2024/02/25 10:41:10;;;;;;;1.65;1.55;;;10.50;60.50;;;;;;4990183;28;20081;-89
2024/02/25 10:43:37;;;;;;;1.63;1.52;;;10.70;61.60;;;;;;5026424;28;20027;-88
2024/02/25 10:46:17;;;;;;;3.05;1.30;;;10.80;59.30;;;;;;4989353;28;20021;-89
2024/02/25 10:48:43;;;;;;;2.30;1.45;;;10.70;57.20;;;;;;4976693;28;20113;-88
2024/02/25 10:51:11;;;;;;;0.95;0.85;;;10.50;58.00;;;;;;4959672;28;20034;-89
2024/02/25 10:53:41;;;;;;;0.60;0.60;;;10.50;57.00;;;;;;5016629;28;20054;-87
2024/02/25 10:56:13;;;;;;;0.95;0.95;;;10.60;57.90;;;;;;4966896;28;20031;-89
2024/02/25 10:58:40;;;;;;;1.23;1.23;;;10.40;58.20;;;;;;5014726;28;20043;-90
2024/02/25 11:01:07;;;;;;;1.10;0.85;;;10.30;57.50;;;;;;4963533;28;20044;-87
2024/02/25 11:03:33;;;;;;;1.45;1.35;;;10.20;58.80;;;;;;4974630;28;20042;-89
2024/02/25 11:06:01;;;;;;;2.13;0.90;;;10.10;58.90;;;;;;4974139;28;20023;-89
2024/02/25 11:08:41;;;;;;;1.52;1.27;;;10.20;61.00;;;;;;4975708;28;20092;-88
2024/02/25 11:11:11;;;;;;;1.90;1.05;;;10.60;58.80;;;;;;4964091;28;20050;-87
2024/02/25 11:13:46;;;;;;;1.52;1.42;;;10.80;57.40;;;;;;5012673;28;20029;-90
2024/02/25 11:16:12;;;;;;;1.95;1.63;;;10.70;58.60;;;;;;4980583;28;20021;-88
2024/02/25 11:18:43;;;;;;;1.27;1.17;;;10.90;57.70;;;;;;5026745;28;20047;-88
2024/02/25 11:21:10;;;;;;;1.33;1.08;;;11.00;57.10;;;;;;5005782;28;20024;-88
2024/02/25 11:23:47;;;;;;;2.38;1.63;;;11.20;55.50;;;;;;4971118;28;20110;-88
2024/02/25 11:26:35;;;;;;;1.50;1.30;;;11.20;55.40;;;;;;4967527;28;20023;-91
2024/02/25 11:29:14;;;;;;;1.88;1.77;;;11.40;53.10;;;;;;5042067;28;20029;-88
2024/02/25 11:31:53;;;;;;;1.17;1.08;;;11.40;52.90;;;;;;4974008;28;20042;-88
2024/02/25 11:34:21;;;;;;;2.58;1.50;;;11.40;51.40;;;;;;5008958;28;20027;-88
2024/02/25 11:36:55;;;;;;;3.92;1.13;;;11.70;50.20;;;;;;5017629;28;20032;-88
2024/02/25 11:39:25;;;;;;;1.85;1.02;;;11.70;50.90;;;;;;5002221;28;20028;-89
2024/02/25 11:41:56;;;;;;;2.20;1.10;;;12.00;50.70;;;;;;5027531;28;20050;-89
2024/02/25 11:44:26;;;;;;;0.80;0.80;;;12.40;49.30;;;;;;5045351;28;20020;-90
2024/02/25 11:47:03;;;;;;;1.58;1.00;;;12.20;48.20;;;;;;4967182;28;20023;-92
2024/02/25 11:49:29;;;;;;;1.20;1.15;;;12.40;49.30;;;;;;4961865;28;20030;-89
2024/02/25 11:51:56;;;;;;;1.70;1.05;;;12.80;48.60;;;;;;4981159;28;20050;-88
2024/02/25 11:54:22;;;;;;;0.80;0.80;;;12.50;46.90;;;;;;5021483;28;20055;-89
2024/02/25 11:56:49;;;;;;;1.25;1.15;;;12.00;46.40;;;;;;4986232;28;20568;-88
2024/02/25 11:59:18;;;;;;;0.90;0.80;;;11.70;48.10;;;;;;5060688;28;20082;-88
2024/02/25 12:01:45;;;;;;;1.33;1.23;;;11.70;50.10;;;;;;4988199;28;20102;-87
2024/02/25 12:04:13;;;;;;;1.13;1.13;;;12.10;49.90;;;;;;5003505;28;20092;-88
2024/02/25 12:06:39;;;;;;;1.83;1.08;;;12.40;46.30;;;;;;4972550;28;20103;-89
2024/02/25 12:09:07;;;;;;;1.50;0.85;;;12.10;46.40;;;;;;4985273;28;20083;-88
2024/02/25 12:11:37;;;;;;;1.48;0.70;;;11.90;47.20;;;;;;4982518;28;20089;-88
2024/02/25 12:14:07;;;;;;;0.82;0.80;;;11.80;47.00;;;;;;4962076;28;20111;-89
2024/02/25 12:16:34;;;;;;;1.38;1.02;;;11.70;48.50;;;;;;5004380;28;20029;-88
2024/02/25 12:19:00;;;;;;;0.88;0.88;;;11.60;48.60;;;;;;4982712;28;20031;-89
2024/02/25 12:21:27;;;;;;;4.10;1.30;;;11.40;48.10;;;;;;5033378;28;20033;-87
2024/02/25 12:23:58;;;;;;;0.93;0.80;;;11.20;46.40;;;;;;5016930;28;20085;-89
2024/02/25 12:26:24;;;;;;;1.13;0.77;;;11.00;45.70;;;;;;4973424;28;20034;-88
2024/02/25 12:28:49;;;;;;;0.93;0.82;;;11.00;45.90;;;;;;5015543;28;20027;-88
2024/02/25 12:31:16;;;;;;;2.22;0.70;;;11.10;46.40;;;;;;5015121;28;20058;-89
2024/02/25 12:33:42;;;;;;;2.67;0.70;;;10.90;47.00;;;;;;5004658;28;20039;-87
2024/02/25 12:36:08;;;;;;;2.30;0.88;;;10.90;46.60;;;;;;4973138;28;20083;-90
2024/02/25 12:38:34;;;;;;;2.25;1.08;;;10.90;47.20;;;;;;5051681;28;20063;-88
2024/02/25 12:41:03;;;;;;;0.75;0.73;;;11.00;45.30;;;;;;4958859;28;20023;-89
2024/02/25 12:43:29;;;;;;;0.95;0.90;;;11.10;46.40;;;;;;4960993;28;20015;-89
2024/02/25 12:45:55;;;;;;;2.05;1.40;;;11.20;46.00;;;;;;5019424;28;20075;-87
2024/02/25 12:48:21;;;;;;;1.13;1.02;;;11.00;46.30;;;;;;5014037;28;20555;-90
2024/02/25 12:50:47;;;;;;;2.08;1.42;;;11.10;46.90;;;;;;4956827;28;20027;-86
2024/02/25 12:53:13;;;;;;;1.20;1.08;;;11.20;47.20;;;;;;4957309;28;20468;-88